Time;durP1;ratioP1;P1;durP2;ratioP2;P2;SDS_P1;SDS_P2;PMS_P1;PMS_P2;Temp;Humidity;BMP_temperature;BMP_pressure;BME280_temperature;BME280_humidity;BME280_pressure;Samples;Min_cycle;Max_cycle;Signal;HPM_P1;HPM_P2
2022/03/09 00:00:40;;;;;;;22.02;7.35;;;-1.60;99.90;;;;;;5032131;28;20375;-61
2022/03/09 00:03:06;;;;;;;19.92;7.25;;;-1.50;99.90;;;;;;5033185;28;20038;-61
2022/03/09 00:05:31;;;;;;;14.75;7.07;;;-1.60;99.90;;;;;;5035848;28;20057;-61
2022/03/09 00:07:57;;;;;;;14.95;7.65;;;-1.60;99.90;;;;;;5035285;28;20056;-61
2022/03/09 00:10:23;;;;;;;17.02;7.25;;;-1.70;99.90;;;;;;5036351;28;20021;-61
2022/03/09 00:12:49;;;;;;;14.07;6.45;;;-1.70;99.90;;;;;;5036555;28;20029;-60
2022/03/09 00:15:14;;;;;;;14.52;6.80;;;0.00;99.90;;;;;;5036636;28;20025;-61
2022/03/09 00:17:40;;;;;;;15.50;7.38;;;-1.50;99.90;;;;;;5036707;28;20107;-61
2022/03/09 00:20:06;;;;;;;18.20;6.50;;;-1.70;99.90;;;;;;5035512;28;20355;-61
2022/03/09 00:22:32;;;;;;;18.45;6.88;;;-1.80;99.90;;;;;;5035200;28;20032;-61
2022/03/09 00:24:58;;;;;;;15.45;7.07;;;-1.80;99.90;;;;;;5036369;28;20030;-61
2022/03/09 00:27:23;;;;;;;14.23;6.45;;;-1.80;99.90;;;;;;5036323;28;20389;-61
2022/03/09 00:29:49;;;;;;;13.13;6.95;;;-1.90;99.90;;;;;;5036307;28;20026;-61
2022/03/09 00:32:15;;;;;;;13.40;6.60;;;-1.90;99.90;;;;;;5035097;28;20112;-61
2022/03/09 00:34:41;;;;;;;18.17;7.10;;;-0.50;99.90;;;;;;5036208;28;20033;-61
2022/03/09 00:37:06;;;;;;;16.38;7.00;;;-1.90;99.90;;;;;;5034999;28;20045;-61
2022/03/09 00:39:32;;;;;;;14.63;6.30;;;-1.90;99.90;;;;;;5034550;28;20021;-60
2022/03/09 00:41:58;;;;;;;16.75;7.30;;;-1.90;99.90;;;;;;5036246;28;20053;-61
2022/03/09 00:44:23;;;;;;;17.70;7.00;;;-1.90;99.90;;;;;;5036005;28;20021;-61
2022/03/09 00:46:49;;;;;;;18.45;7.18;;;-1.90;99.90;;;;;;5036004;28;20026;-61
2022/03/09 00:49:15;;;;;;;13.18;6.18;;;-1.90;99.90;;;;;;5034684;28;20025;-61
2022/03/09 00:51:41;;;;;;;16.77;7.20;;;-1.90;99.90;;;;;;5035857;28;20028;-61
2022/03/09 00:54:07;;;;;;;17.70;7.03;;;-0.10;99.90;;;;;;5034536;28;20488;-61
2022/03/09 00:56:33;;;;;;;17.27;7.28;;;-2.00;99.90;;;;;;5035742;28;20029;-61
2022/03/09 00:58:58;;;;;;;15.65;6.45;;;-2.00;99.90;;;;;;5035774;28;20029;-61
2022/03/09 01:01:24;;;;;;;19.83;6.95;;;-1.50;99.90;;;;;;5035671;28;20088;-61
2022/03/09 01:03:50;;;;;;;15.65;6.82;;;-1.90;99.90;;;;;;5035555;28;20028;-61
2022/03/09 01:06:16;;;;;;;15.27;6.80;;;-2.20;99.90;;;;;;5034060;28;20025;-61
2022/03/09 01:08:41;;;;;;;19.08;7.13;;;-1.00;99.90;;;;;;5034345;28;20029;-61
2022/03/09 01:11:07;;;;;;;17.08;7.75;;;-2.20;99.90;;;;;;5035534;28;20119;-61
2022/03/09 01:13:33;;;;;;;20.25;7.78;;;-2.20;99.90;;;;;;5035177;28;20453;-61
2022/03/09 01:15:58;;;;;;;15.77;7.78;;;-2.20;99.90;;;;;;5033246;28;20033;-61
2022/03/09 01:18:24;;;;;;;18.08;6.60;;;-0.70;99.90;;;;;;5034120;28;20025;-61
2022/03/09 01:20:50;;;;;;;20.20;7.35;;;-1.30;99.90;;;;;;5035558;28;20029;-61
2022/03/09 01:23:15;;;;;;;15.27;7.07;;;-2.30;99.90;;;;;;5035565;28;20029;-61
2022/03/09 01:25:41;;;;;;;22.38;6.45;;;-0.60;99.90;;;;;;5034139;28;20385;-61
2022/03/09 01:28:06;;;;;;;16.23;6.97;;;-2.40;99.90;;;;;;5035240;28;20021;-61
2022/03/09 01:30:32;;;;;;;15.68;6.60;;;-0.60;99.90;;;;;;5035141;28;20025;-61
2022/03/09 01:32:58;;;;;;;24.33;7.55;;;-2.40;99.90;;;;;;5035087;28;20022;-61
2022/03/09 01:35:23;;;;;;;17.42;7.50;;;-2.40;99.90;;;;;;5033785;28;20025;-61
2022/03/09 01:37:49;;;;;;;15.55;7.25;;;-2.40;99.90;;;;;;5034229;28;20076;-61
2022/03/09 01:40:15;;;;;;;18.17;8.05;;;-2.40;99.90;;;;;;5034949;28;20068;-61
2022/03/09 01:42:42;;;;;;;13.15;6.50;;;-2.40;99.90;;;;;;5034932;28;20022;-61
2022/03/09 01:45:09;;;;;;;19.27;7.25;;;-2.40;99.90;;;;;;5033499;28;20033;-61
2022/03/09 01:47:35;;;;;;;13.95;6.40;;;-2.40;99.90;;;;;;5035077;28;20150;-61
2022/03/09 01:50:01;;;;;;;13.27;7.28;;;-2.50;99.90;;;;;;5035035;28;20048;-61
2022/03/09 01:52:27;;;;;;;19.98;8.02;;;-1.20;99.90;;;;;;5034603;28;20030;-61
2022/03/09 01:55:12;;;;;;;14.55;6.68;;;-2.40;99.90;;;;;;5033393;28;20523;-61
2022/03/09 01:57:40;;;;;;;16.80;7.13;;;-0.30;99.90;;;;;;5033563;28;20041;-61
2022/03/09 02:00:06;;;;;;;11.50;6.75;;;-2.20;99.90;;;;;;5033271;28;20425;-61
2022/03/09 02:02:32;;;;;;;15.70;7.13;;;-2.50;99.90;;;;;;5034540;28;20370;-60
2022/03/09 02:04:57;;;;;;;21.88;7.57;;;-2.50;99.90;;;;;;5034487;28;20033;-61
2022/03/09 02:09:41;;;;;;;18.67;7.47;;;-2.40;99.90;;;;;;5034458;28;20053;-61
2022/03/09 02:10:10;;;;;;;15.07;7.15;;;-2.50;99.90;;;;;;5033967;28;20029;-61
2022/03/09 02:12:36;;;;;;;14.02;6.95;;;-0.90;99.90;;;;;;5034994;28;20064;-61
2022/03/09 02:15:03;;;;;;;12.98;6.72;;;-0.90;99.90;;;;;;5034653;28;20151;-60
2022/03/09 02:17:29;;;;;;;16.25;7.72;;;-2.40;99.90;;;;;;5034229;28;20385;-61
2022/03/09 02:19:56;;;;;;;15.10;7.45;;;-2.40;99.90;;;;;;5034310;28;20017;-61
2022/03/09 02:22:38;;;;;;;14.43;6.20;;;-2.40;99.90;;;;;;5033171;28;20112;-61
2022/03/09 02:25:12;;;;;;;14.77;6.00;;;-2.50;99.90;;;;;;5034375;28;20037;-60
2022/03/09 02:27:38;;;;;;;18.67;7.00;;;-2.50;99.90;;;;;;5033857;28;20168;-61
2022/03/09 02:30:06;;;;;;;17.80;7.25;;;-2.50;99.90;;;;;;5034115;28;20076;-61
2022/03/09 02:32:31;;;;;;;14.75;6.38;;;-2.50;99.90;;;;;;5033785;28;20040;-61
2022/03/09 02:34:57;;;;;;;14.55;6.88;;;-0.10;99.90;;;;;;5032904;28;20469;-61
2022/03/09 02:37:23;;;;;;;17.10;7.68;;;-0.40;99.90;;;;;;5034099;28;20060;-61
2022/03/09 02:39:49;;;;;;;14.48;6.18;;;-2.60;99.90;;;;;;5033996;28;20382;-60
2022/03/09 02:42:15;;;;;;;15.45;6.88;;;-2.60;99.90;;;;;;5032697;28;20462;-61
2022/03/09 02:44:41;;;;;;;16.92;7.15;;;-0.40;99.90;;;;;;5034212;28;20080;-61
2022/03/09 02:47:07;;;;;;;16.48;7.40;;;-2.70;99.90;;;;;;5033872;28;20037;-61
2022/03/09 02:49:34;;;;;;;11.98;6.35;;;-2.70;99.90;;;;;;5034450;28;20033;-61
2022/03/09 02:51:59;;;;;;;16.48;7.60;;;-1.30;99.90;;;;;;5033542;28;20489;-61
2022/03/09 02:54:25;;;;;;;16.85;7.28;;;-2.60;99.90;;;;;;5034055;28;20022;-61
2022/03/09 02:56:51;;;;;;;15.32;7.10;;;-1.20;99.90;;;;;;5033877;28;20377;-61
2022/03/09 02:59:16;;;;;;;16.15;7.43;;;-0.60;99.90;;;;;;5033750;28;20029;-61
2022/03/09 03:01:42;;;;;;;16.90;6.85;;;-2.70;99.90;;;;;;5033712;28;20124;-61
2022/03/09 03:04:08;;;;;;;14.65;7.35;;;-0.70;99.90;;;;;;5033540;28;20026;-61
2022/03/09 03:06:33;;;;;;;14.65;6.80;;;-2.80;99.90;;;;;;5033165;28;20061;-61
2022/03/09 03:08:59;;;;;;;16.45;7.68;;;-2.80;99.90;;;;;;5032836;28;20022;-61
2022/03/09 03:11:25;;;;;;;16.73;6.63;;;-2.80;99.90;;;;;;5033807;28;20385;-61
2022/03/09 03:13:50;;;;;;;12.35;7.10;;;-2.80;99.90;;;;;;5033597;28;20022;-61
2022/03/09 03:16:16;;;;;;;17.13;7.75;;;-2.80;99.90;;;;;;5032283;28;20458;-61
2022/03/09 03:18:42;;;;;;;17.08;7.45;;;-2.00;99.90;;;;;;5033469;28;20381;-60
2022/03/09 03:21:07;;;;;;;15.38;6.78;;;-2.80;99.90;;;;;;5033306;28;20026;-61
2022/03/09 03:23:35;;;;;;;14.85;6.65;;;-2.90;99.90;;;;;;5033543;28;20026;-61
2022/03/09 03:26:02;;;;;;;16.05;6.88;;;-2.60;99.90;;;;;;5033765;28;20488;-60
2022/03/09 03:28:28;;;;;;;13.90;7.32;;;-2.50;99.90;;;;;;5033479;28;20033;-61
2022/03/09 03:30:54;;;;;;;12.23;6.65;;;-3.00;99.90;;;;;;5033563;28;20025;-61
2022/03/09 03:33:21;;;;;;;16.65;7.65;;;-1.00;99.90;;;;;;5033148;28;20029;-60
2022/03/09 03:35:48;;;;;;;14.82;6.75;;;-1.70;99.90;;;;;;5033072;28;20022;-61
2022/03/09 03:38:14;;;;;;;17.40;7.47;;;-3.00;99.90;;;;;;5033392;28;20526;-61
2022/03/09 03:40:40;;;;;;;17.90;7.35;;;-1.60;99.90;;;;;;5036244;28;20017;-61
2022/03/09 03:43:06;;;;;;;18.23;6.95;;;-3.10;99.90;;;;;;5036017;28;20381;-61
2022/03/09 03:45:32;;;;;;;18.70;7.55;;;-0.70;99.90;;;;;;5036949;28;20029;-61
2022/03/09 03:50:42;;;;;;;14.70;7.30;;;-0.70;99.90;;;;;;5037069;28;20032;-61
2022/03/09 03:53:08;;;;;;;16.70;7.50;;;-2.80;99.90;;;;;;5036990;28;20021;-61
2022/03/09 03:55:34;;;;;;;13.18;7.13;;;-3.10;99.90;;;;;;5036895;28;20022;-61
2022/03/09 03:57:59;;;;;;;18.02;7.80;;;-3.10;99.90;;;;;;5036947;28;20067;-60
2022/03/09 04:00:25;;;;;;;14.52;6.38;;;-2.60;99.90;;;;;;5036894;28;20030;-61
2022/03/09 04:02:51;;;;;;;15.43;7.30;;;-3.10;99.90;;;;;;5036861;28;20028;-61
2022/03/09 04:05:17;;;;;;;15.88;7.30;;;-2.90;99.90;;;;;;5036513;28;20465;-61
2022/03/09 04:07:42;;;;;;;18.58;7.85;;;-3.20;99.90;;;;;;5036741;28;20541;-61
2022/03/09 04:10:08;;;;;;;15.57;7.13;;;-2.90;99.90;;;;;;5036423;28;20028;-60
2022/03/09 04:12:34;;;;;;;16.70;7.53;;;-3.20;99.90;;;;;;5035311;28;20032;-60
2022/03/09 04:15:00;;;;;;;13.88;7.35;;;-3.20;99.90;;;;;;5035364;28;20021;-60
2022/03/09 04:17:25;;;;;;;11.32;6.10;;;-3.20;99.90;;;;;;5036835;28;20492;-61
2022/03/09 04:20:09;;;;;;;17.70;7.70;;;-3.30;99.90;;;;;;5034938;28;20049;-61
2022/03/09 04:22:35;;;;;;;14.45;6.80;;;-3.30;99.90;;;;;;5036327;28;20053;-61
2022/03/09 04:25:01;;;;;;;18.05;7.63;;;-3.30;99.90;;;;;;5036424;28;20052;-61
2022/03/09 04:27:28;;;;;;;15.55;7.63;;;-3.00;99.90;;;;;;5036404;28;20037;-60
2022/03/09 04:29:53;;;;;;;17.77;7.03;;;-3.30;99.90;;;;;;5036320;28;20095;-61
2022/03/09 04:32:19;;;;;;;13.60;6.18;;;-2.60;99.90;;;;;;5035216;28;20454;-60
2022/03/09 04:34:44;;;;;;;12.93;6.88;;;-3.40;99.90;;;;;;5036142;28;20388;-60
2022/03/09 04:37:10;;;;;;;10.27;6.43;;;-3.40;99.90;;;;;;5036329;28;20457;-60
2022/03/09 04:39:36;;;;;;;16.13;7.63;;;-3.40;99.90;;;;;;5036326;28;20026;-61
2022/03/09 04:42:01;;;;;;;15.63;7.35;;;-3.00;99.90;;;;;;5034834;28;20117;-61
2022/03/09 04:44:27;;;;;;;13.60;7.00;;;-3.50;99.90;;;;;;5034964;28;20124;-61
2022/03/09 04:46:53;;;;;;;17.25;7.65;;;-2.70;99.90;;;;;;5034724;28;20030;-60
2022/03/09 04:49:18;;;;;;;16.25;7.65;;;-3.50;99.90;;;;;;5035947;28;20025;-61
2022/03/09 04:52:03;;;;;;;16.98;7.30;;;-1.40;99.90;;;;;;5035880;28;20025;-61
2022/03/09 04:54:29;;;;;;;19.60;8.18;;;-3.50;99.90;;;;;;5034306;28;20064;-61
2022/03/09 04:56:54;;;;;;;14.75;6.50;;;-3.60;99.90;;;;;;5034455;28;20064;-61
2022/03/09 04:59:20;;;;;;;16.90;7.80;;;-3.60;99.90;;;;;;5035800;28;20022;-60
2022/03/09 05:01:45;;;;;;;19.65;7.78;;;-1.40;99.90;;;;;;5035741;28;20430;-60
2022/03/09 05:04:11;;;;;;;17.70;7.13;;;-3.60;99.90;;;;;;5035981;28;20401;-60
2022/03/09 05:06:37;;;;;;;18.83;8.27;;;-2.00;99.90;;;;;;5035542;28;20056;-60
2022/03/09 05:09:02;;;;;;;14.27;7.07;;;-1.60;99.90;;;;;;5035563;28;20037;-60
2022/03/09 05:11:28;;;;;;;26.10;7.75;;;-2.30;99.90;;;;;;5036363;28;20456;-60
2022/03/09 05:13:53;;;;;;;18.00;7.38;;;-3.70;99.90;;;;;;5033885;28;20025;-61
2022/03/09 05:16:19;;;;;;;15.25;7.05;;;-1.50;99.90;;;;;;5034127;28;20037;-61
2022/03/09 05:18:45;;;;;;;19.27;8.38;;;-3.70;99.90;;;;;;5035424;28;20028;-60
2022/03/09 05:21:10;;;;;;;16.58;7.68;;;-1.70;99.90;;;;;;5035562;28;20033;-61
2022/03/09 05:23:36;;;;;;;21.00;8.10;;;-1.90;99.90;;;;;;5035441;28;20439;-60
2022/03/09 05:26:02;;;;;;;16.20;7.40;;;-3.20;99.90;;;;;;5035222;28;20071;-60
2022/03/09 05:28:28;;;;;;;15.00;8.50;;;-1.90;99.90;;;;;;5033959;28;20032;-61
2022/03/09 05:30:53;;;;;;;19.33;7.60;;;-3.70;99.90;;;;;;5033937;28;20079;-60
2022/03/09 05:33:19;;;;;;;15.73;8.13;;;-3.70;99.90;;;;;;5033809;28;20466;-61
2022/03/09 05:35:44;;;;;;;13.77;7.53;;;-3.40;99.90;;;;;;5034954;28;20032;-61
2022/03/09 05:38:10;;;;;;;18.02;8.35;;;-3.70;99.90;;;;;;5035193;28;20036;-60
2022/03/09 05:40:36;;;;;;;17.38;7.70;;;-3.70;99.90;;;;;;5034724;28;20017;-61
2022/03/09 05:43:01;;;;;;;18.08;8.45;;;-3.70;99.90;;;;;;5035112;28;20075;-60
2022/03/09 05:45:27;;;;;;;18.23;8.57;;;-1.50;99.90;;;;;;5033608;28;20030;-61
2022/03/09 05:47:53;;;;;;;15.82;7.50;;;-3.60;99.90;;;;;;5033521;28;20025;-61
2022/03/09 05:50:19;;;;;;;18.90;8.18;;;-3.60;99.90;;;;;;5034791;28;20026;-61
2022/03/09 05:52:45;;;;;;;17.92;7.88;;;-3.60;99.90;;;;;;5034796;28;20029;-61
2022/03/09 05:55:11;;;;;;;15.15;8.25;;;-2.20;99.90;;;;;;5033429;28;20075;-61
2022/03/09 05:57:36;;;;;;;17.90;8.40;;;-3.60;99.90;;;;;;5034684;28;20034;-61
2022/03/09 06:00:03;;;;;;;18.75;8.30;;;-3.60;99.90;;;;;;5034614;28;20029;-62
2022/03/09 06:02:29;;;;;;;16.90;7.70;;;-3.50;99.90;;;;;;5034094;28;20034;-62
2022/03/09 06:04:54;;;;;;;21.30;8.98;;;-3.50;99.90;;;;;;5034783;28;20377;-62
2022/03/09 06:07:20;;;;;;;20.50;8.73;;;-3.50;99.90;;;;;;5034212;28;20060;-62
2022/03/09 06:09:46;;;;;;;23.25;9.50;;;-1.40;99.90;;;;;;5034719;28;20458;-62
2022/03/09 06:12:11;;;;;;;20.48;9.18;;;-2.50;99.90;;;;;;5033159;28;20056;-61
2022/03/09 06:14:37;;;;;;;23.88;9.90;;;-1.20;99.90;;;;;;5034354;28;20095;-61
2022/03/09 06:17:03;;;;;;;23.40;9.45;;;-3.20;99.90;;;;;;5034220;28;20131;-61
2022/03/09 06:19:28;;;;;;;31.65;9.90;;;-3.20;99.90;;;;;;5034591;28;20028;-61
2022/03/09 06:21:54;;;;;;;26.25;9.45;;;-2.80;99.90;;;;;;5033000;28;20383;-61
2022/03/09 06:24:20;;;;;;;18.50;9.40;;;-2.80;99.90;;;;;;5033909;28;20040;-61
2022/03/09 06:26:45;;;;;;;19.02;8.60;;;-2.70;99.90;;;;;;5032838;28;20030;-61
2022/03/09 06:29:12;;;;;;;18.02;9.43;;;-2.10;99.90;;;;;;5034076;28;20025;-61
2022/03/09 06:31:38;;;;;;;22.17;8.77;;;-2.50;99.90;;;;;;5034113;28;20033;-61
2022/03/09 06:34:04;;;;;;;21.15;9.85;;;-2.30;99.90;;;;;;5034115;28;20416;-61
2022/03/09 06:36:29;;;;;;;27.40;8.93;;;-2.00;99.90;;;;;;5033938;28;20029;-61
2022/03/09 06:38:55;;;;;;;16.70;8.32;;;-1.60;99.90;;;;;;5033664;28;20036;-61
2022/03/09 06:41:21;;;;;;;18.75;8.68;;;-1.30;99.90;;;;;;5032772;28;20386;-61
2022/03/09 06:43:46;;;;;;;14.70;7.57;;;-1.00;99.90;;;;;;5033908;28;20515;-61
2022/03/09 06:46:12;;;;;;;20.52;8.90;;;-0.60;99.90;;;;;;5033880;28;20424;-61
2022/03/09 06:48:38;;;;;;;18.23;8.57;;;0.30;99.90;;;;;;5033578;28;20461;-61
2022/03/09 06:51:04;;;;;;;17.30;8.50;;;0.00;99.90;;;;;;5033849;28;20036;-61
2022/03/09 06:53:30;;;;;;;20.92;8.68;;;0.50;99.90;;;;;;5032552;28;20075;-61
2022/03/09 06:55:56;;;;;;;16.67;7.65;;;0.80;99.90;;;;;;5033902;28;20057;-61
2022/03/09 06:58:23;;;;;;;17.77;7.93;;;1.00;99.90;;;;;;5033231;28;20064;-61
2022/03/09 07:00:49;;;;;;;18.17;8.02;;;1.30;99.90;;;;;;5033733;28;20029;-61
2022/03/09 07:03:15;;;;;;;20.25;7.75;;;1.30;99.90;;;;;;5033701;28;20454;-61
2022/03/09 07:05:40;;;;;;;15.68;8.25;;;1.40;99.90;;;;;;5033895;28;20131;-61
2022/03/09 07:08:06;;;;;;;18.98;7.35;;;1.40;99.90;;;;;;5034050;28;20629;-61
2022/03/09 07:10:32;;;;;;;13.88;7.63;;;1.50;99.90;;;;;;5032136;28;20120;-61
2022/03/09 07:12:57;;;;;;;13.55;6.85;;;1.60;99.90;;;;;;5032051;28;20040;-61
2022/03/09 07:15:23;;;;;;;13.75;7.03;;;1.80;99.90;;;;;;5036424;28;20108;-62
2022/03/09 07:17:49;;;;;;;17.55;8.30;;;1.70;99.90;;;;;;5037558;28;20037;-61
2022/03/09 07:20:16;;;;;;;21.25;6.95;;;1.80;99.90;;;;;;5037603;28;20448;-62
2022/03/09 07:22:43;;;;;;;12.00;7.28;;;2.00;99.90;;;;;;5037530;28;20028;-62
2022/03/09 07:25:10;;;;;;;13.63;6.85;;;2.10;99.90;;;;;;5037479;28;20033;-62
2022/03/09 07:27:36;;;;;;;13.77;7.00;;;3.20;99.90;;;;;;5036459;28;20450;-61
2022/03/09 07:30:03;;;;;;;12.50;7.22;;;2.50;99.90;;;;;;5037659;28;20079;-62
2022/03/09 07:32:29;;;;;;;14.43;9.20;;;2.60;99.90;;;;;;5036071;28;20025;-62
2022/03/09 07:34:54;;;;;;;14.43;6.93;;;2.80;99.90;;;;;;5037361;28;20042;-62
2022/03/09 07:37:20;;;;;;;9.85;5.93;;;3.00;99.90;;;;;;5037487;28;20059;-62
2022/03/09 07:39:46;;;;;;;12.95;6.32;;;3.10;99.90;;;;;;5037329;28;20048;-62
2022/03/09 07:42:11;;;;;;;12.73;6.50;;;3.20;99.90;;;;;;5037212;28;20037;-61
2022/03/09 07:44:37;;;;;;;11.65;5.95;;;3.40;99.90;;;;;;5037177;28;20025;-62
2022/03/09 07:47:03;;;;;;;12.13;5.88;;;3.50;99.90;;;;;;5037310;28;20037;-62
2022/03/09 07:49:28;;;;;;;15.18;6.40;;;3.50;99.90;;;;;;5037102;28;20030;-62
2022/03/09 07:51:54;;;;;;;12.93;5.93;;;3.60;99.90;;;;;;5037326;28;20029;-62
2022/03/09 07:54:20;;;;;;;11.85;6.30;;;3.50;99.90;;;;;;5036724;28;20052;-62
2022/03/09 07:56:45;;;;;;;17.33;6.60;;;3.50;99.90;;;;;;5037152;28;20030;-62
2022/03/09 07:59:11;;;;;;;12.02;6.47;;;3.50;99.90;;;;;;5035597;28;20025;-62
2022/03/09 08:01:40;;;;;;;11.18;5.95;;;3.50;99.90;;;;;;5035591;28;20034;-62
2022/03/09 08:04:06;;;;;;;11.07;6.00;;;3.60;99.50;;;;;;5036848;28;20022;-61
2022/03/09 08:06:32;;;;;;;12.45;6.60;;;3.70;99.30;;;;;;5034930;28;20045;-62
2022/03/09 08:08:58;;;;;;;10.88;6.43;;;3.70;98.80;;;;;;5036097;28;20091;-62
2022/03/09 08:11:23;;;;;;;12.48;6.50;;;3.80;98.50;;;;;;5035462;28;20037;-61
2022/03/09 08:13:49;;;;;;;12.43;7.43;;;3.90;98.40;;;;;;5035418;28;20029;-62
2022/03/09 08:16:15;;;;;;;13.40;6.93;;;4.00;98.40;;;;;;5035370;28;20038;-62
2022/03/09 08:18:40;;;;;;;16.58;6.97;;;4.20;97.20;;;;;;5035116;28;20108;-62
2022/03/09 08:21:06;;;;;;;11.98;6.43;;;4.30;97.10;;;;;;5035348;28;20022;-62
2022/03/09 08:23:32;;;;;;;12.15;7.47;;;4.50;96.00;;;;;;5035518;28;20033;-61
2022/03/09 08:25:57;;;;;;;14.05;6.80;;;4.70;96.10;;;;;;5035116;28;20045;-62
2022/03/09 08:28:23;;;;;;;9.93;6.00;;;4.90;95.70;;;;;;5034093;28;20025;-61
2022/03/09 08:30:48;;;;;;;13.30;7.10;;;5.20;93.40;;;;;;5035223;28;20029;-62
2022/03/09 08:33:14;;;;;;;11.57;6.70;;;5.50;92.70;;;;;;5033879;28;20454;-61
2022/03/09 08:35:40;;;;;;;9.95;5.28;;;5.60;90.20;;;;;;5034365;28;20026;-61
2022/03/09 08:38:06;;;;;;;11.70;6.00;;;5.60;88.80;;;;;;5035125;28;20033;-62
2022/03/09 08:40:31;;;;;;;12.00;6.10;;;5.70;87.70;;;;;;5035059;28;20389;-62
2022/03/09 08:42:57;;;;;;;12.98;6.85;;;5.60;87.60;;;;;;5035035;28;20060;-62
2022/03/09 08:45:23;;;;;;;14.25;6.63;;;5.60;87.20;;;;;;5035243;28;20036;-61
2022/03/09 08:47:49;;;;;;;10.30;7.18;;;5.70;84.60;;;;;;5034925;28;20060;-62
2022/03/09 08:50:15;;;;;;;11.80;6.57;;;5.70;84.40;;;;;;5034881;28;20445;-62
2022/03/09 08:52:41;;;;;;;11.52;6.30;;;5.60;81.30;;;;;;5035113;28;20057;-62
2022/03/09 08:55:07;;;;;;;12.07;6.28;;;5.60;84.20;;;;;;5033544;28;20053;-62
2022/03/09 08:57:33;;;;;;;11.73;6.50;;;5.70;83.00;;;;;;5035257;28;20121;-62
2022/03/09 09:00:03;;;;;;;10.23;5.80;;;5.90;82.20;;;;;;5034709;28;20100;-61
2022/03/09 09:02:29;;;;;;;11.40;6.00;;;5.90;79.60;;;;;;5033437;28;20072;-61
2022/03/09 09:04:55;;;;;;;11.10;5.95;;;5.90;80.70;;;;;;5034933;28;20097;-61
2022/03/09 09:07:22;;;;;;;11.88;5.65;;;6.10;78.80;;;;;;4996349;28;1107871;-61
2022/03/09 09:09:48;;;;;;;9.02;5.85;;;6.40;77.50;;;;;;5035602;28;20048;-61
2022/03/09 09:12:13;;;;;;;10.13;5.93;;;6.60;74.60;;;;;;5035270;28;20026;-61
2022/03/09 09:14:39;;;;;;;12.60;6.38;;;6.90;73.00;;;;;;5034255;28;20112;-61
2022/03/09 09:17:05;;;;;;;12.25;6.45;;;7.30;69.20;;;;;;5034094;28;20038;-61
2022/03/09 09:19:31;;;;;;;13.48;6.55;;;7.40;67.90;;;;;;5035851;28;20040;-62
2022/03/09 09:21:57;;;;;;;17.25;6.13;;;7.60;68.40;;;;;;5034463;28;20029;-61
2022/03/09 09:24:22;;;;;;;10.50;5.90;;;7.80;64.60;;;;;;5035591;28;20114;-61
2022/03/09 09:26:48;;;;;;;9.77;5.95;;;7.40;66.10;;;;;;5035272;28;20030;-62
2022/03/09 09:29:14;;;;;;;10.48;6.57;;;7.20;69.20;;;;;;5033687;28;20454;-61
2022/03/09 09:31:40;;;;;;;11.13;5.90;;;7.10;69.50;;;;;;5035495;28;20025;-61
2022/03/09 09:34:07;;;;;;;11.40;5.90;;;7.30;71.10;;;;;;5035142;28;20029;-61
2022/03/09 09:36:34;;;;;;;7.90;5.30;;;7.20;70.10;;;;;;5034434;28;20061;-61
2022/03/09 09:39:00;;;;;;;10.82;5.93;;;7.20;70.40;;;;;;5035040;28;20037;-61
2022/03/09 09:41:26;;;;;;;11.00;5.82;;;6.90;72.40;;;;;;5034141;28;20029;-61
2022/03/09 09:43:52;;;;;;;11.00;5.90;;;6.90;73.50;;;;;;5033717;28;20072;-61
2022/03/09 09:46:18;;;;;;;10.07;5.82;;;6.90;74.60;;;;;;5034671;28;20056;-61
2022/03/09 09:48:44;;;;;;;11.85;5.95;;;6.90;75.20;;;;;;5033317;28;20030;-61
2022/03/09 09:51:12;;;;;;;10.75;5.32;;;7.00;76.40;;;;;;5034848;28;20083;-61
2022/03/09 09:53:44;;;;;;;10.80;6.55;;;7.20;75.60;;;;;;5034769;28;20095;-61
2022/03/09 09:56:13;;;;;;;12.07;5.82;;;7.20;74.50;;;;;;5034957;28;20029;-61
2022/03/09 09:58:41;;;;;;;11.18;5.53;;;7.30;75.20;;;;;;5033096;28;20041;-61
2022/03/09 10:01:07;;;;;;;14.23;6.40;;;7.40;73.90;;;;;;5034670;28;20393;-62
2022/03/09 10:03:33;;;;;;;11.27;6.65;;;7.30;75.20;;;;;;5034638;28;20018;-62
2022/03/09 10:05:58;;;;;;;11.20;6.40;;;7.40;74.30;;;;;;5034884;28;20033;-61
2022/03/09 10:08:24;;;;;;;15.77;5.78;;;7.20;76.30;;;;;;5034650;28;20462;-61
2022/03/09 10:10:58;;;;;;;11.40;6.38;;;7.10;77.10;;;;;;5033148;28;20029;-61
2022/03/09 10:13:32;;;;;;;9.52;5.85;;;7.10;79.20;;;;;;5034662;28;20107;-61
2022/03/09 10:16:13;;;;;;;10.70;6.07;;;7.30;78.40;;;;;;5034113;28;20037;-62
2022/03/09 10:19:04;;;;;;;11.38;5.95;;;7.70;76.40;;;;;;5033430;28;20389;-61
2022/03/09 10:21:35;;;;;;;11.30;5.70;;;7.70;74.50;;;;;;5034139;28;20026;-61
2022/03/09 10:24:05;;;;;;;10.75;6.05;;;7.90;74.10;;;;;;5033593;28;20022;-61
2022/03/09 10:26:40;;;;;;;11.07;6.03;;;7.80;72.50;;;;;;5034260;28;20026;-61
2022/03/09 10:29:08;;;;;;;12.23;5.65;;;7.80;74.20;;;;;;5034217;28;20417;-61
2022/03/09 10:31:48;;;;;;;9.90;5.23;;;8.00;74.10;;;;;;5034000;28;20036;-61
2022/03/09 10:34:15;;;;;;;10.38;5.32;;;8.30;71.20;;;;;;5032938;28;20748;-61
2022/03/09 10:37:02;;;;;;;8.40;5.30;;;8.70;69.80;;;;;;5033075;28;20559;-61
2022/03/09 10:39:31;;;;;;;8.77;5.47;;;8.80;67.20;;;;;;5034118;28;20026;-62
2022/03/09 10:42:02;;;;;;;11.02;6.43;;;8.90;67.30;;;;;;5034218;28;20029;-61
2022/03/09 10:44:48;;;;;;;7.93;4.63;;;9.20;65.20;;;;;;5034307;28;20122;-62
2022/03/09 10:47:41;;;;;;;11.02;5.25;;;9.20;64.60;;;;;;5033887;28;20029;-61
2022/03/09 10:50:25;;;;;;;9.93;5.13;;;9.30;65.10;;;;;;5032912;28;20033;-62
2022/03/09 10:52:59;;;;;;;11.98;6.47;;;9.40;64.00;;;;;;5032323;28;20076;-62
2022/03/09 10:55:36;;;;;;;9.55;5.28;;;9.60;62.70;;;;;;5032629;28;20033;-62
2022/03/09 10:58:17;;;;;;;7.00;5.15;;;9.90;62.30;;;;;;5033559;28;20038;-61
2022/03/09 11:00:54;;;;;;;11.27;5.30;;;10.00;60.80;;;;;;5033596;28;20466;-62
2022/03/09 11:03:27;;;;;;;8.85;4.68;;;10.10;59.80;;;;;;5034191;28;20462;-61
2022/03/09 11:05:57;;;;;;;8.52;5.25;;;10.00;59.70;;;;;;5033749;28;20462;-61
2022/03/09 11:08:32;;;;;;;8.95;4.93;;;10.20;58.70;;;;;;5033887;28;20115;-61
2022/03/09 11:10:58;;;;;;;8.23;4.60;;;10.60;57.60;;;;;;5032520;28;20057;-61
2022/03/09 11:13:25;;;;;;;9.73;4.95;;;11.20;55.70;;;;;;5033646;28;20025;-61
2022/03/09 11:15:53;;;;;;;7.07;4.28;;;12.10;53.10;;;;;;5033600;28;20063;-62
2022/03/09 11:18:20;;;;;;;7.75;4.63;;;13.20;49.80;;;;;;5032340;28;20037;-62
2022/03/09 11:20:52;;;;;;;7.72;4.13;;;14.10;46.40;;;;;;5033163;28;20115;-62
2022/03/09 11:23:19;;;;;;;6.72;3.97;;;14.20;44.00;;;;;;5033545;28;20422;-62
2022/03/09 11:26:14;;;;;;;6.53;4.47;;;13.50;44.40;;;;;;5033529;28;20034;-62
2022/03/09 11:28:42;;;;;;;6.00;4.10;;;12.80;45.70;;;;;;5033286;28;20025;-62
2022/03/09 11:31:10;;;;;;;5.13;3.90;;;12.00;47.40;;;;;;5033503;28;20079;-61
2022/03/09 11:33:48;;;;;;;5.95;3.35;;;11.60;48.60;;;;;;5033634;28;20040;-61
2022/03/09 11:36:33;;;;;;;7.93;4.28;;;11.00;50.50;;;;;;5033484;28;20062;-61
2022/03/09 11:39:05;;;;;;;7.13;4.28;;;10.80;51.40;;;;;;5033591;28;20022;-61
2022/03/09 11:41:41;;;;;;;6.57;3.50;;;11.10;51.30;;;;;;5033721;28;20028;-61
2022/03/09 11:44:19;;;;;;;5.47;3.38;;;11.50;50.90;;;;;;5032777;28;20339;-61
2022/03/09 11:46:57;;;;;;;5.55;3.75;;;12.60;48.80;;;;;;5031839;28;20026;-61
2022/03/09 11:49:23;;;;;;;5.28;4.07;;;12.80;46.90;;;;;;5033309;28;20025;-62
2022/03/09 11:52:07;;;;;;;10.20;3.83;;;13.40;46.10;;;;;;5033301;28;20029;-62
2022/03/09 11:54:49;;;;;;;5.70;3.55;;;13.90;44.00;;;;;;5033134;28;20424;-62
2022/03/09 11:57:17;;;;;;;7.78;4.47;;;13.90;43.60;;;;;;5032921;28;20405;-62
2022/03/09 12:00:08;;;;;;;7.53;3.72;;;13.90;43.60;;;;;;5033154;28;20440;-62
2022/03/09 12:02:48;;;;;;;6.38;3.95;;;14.20;43.10;;;;;;5035900;28;20483;-62
2022/03/09 12:05:31;;;;;;;5.20;3.63;;;14.40;42.10;;;;;;5040325;28;20397;-69
2022/03/09 12:07:59;;;;;;;8.43;3.97;;;14.20;45.30;;;;;;5045174;28;20056;-68
2022/03/09 12:10:52;;;;;;;5.07;3.85;;;14.10;43.80;;;;;;5043294;28;20420;-69
2022/03/09 12:13:43;;;;;;;5.43;3.40;;;14.50;42.80;;;;;;5045591;28;20087;-69
2022/03/09 12:16:22;;;;;;;6.68;3.75;;;14.60;43.30;;;;;;5075240;28;20043;-69
2022/03/09 12:18:57;;;;;;;3.97;3.20;;;14.80;42.20;;;;;;5044601;28;20057;-68
2022/03/09 12:21:25;;;;;;;4.93;3.65;;;14.80;42.80;;;;;;5042220;28;20060;-68
2022/03/09 12:24:12;;;;;;;5.30;3.97;;;14.90;42.10;;;;;;5040707;28;20026;-68
2022/03/09 12:26:42;;;;;;;6.20;3.55;;;15.10;41.90;;;;;;5036481;28;20509;-55
2022/03/09 12:29:37;;;;;;;5.93;3.83;;;15.10;42.10;;;;;;5036583;28;20017;-55
2022/03/09 12:32:09;;;;;;;5.97;3.63;;;15.10;41.70;;;;;;5035825;28;20402;-55
2022/03/09 12:34:37;;;;;;;7.20;3.78;;;15.00;41.70;;;;;;5036336;28;20025;-55
2022/03/09 12:37:08;;;;;;;5.75;3.70;;;15.00;41.60;;;;;;5036215;28;20029;-62
2022/03/09 12:39:34;;;;;;;6.53;3.85;;;14.90;40.40;;;;;;5035397;28;20116;-62
2022/03/09 12:42:01;;;;;;;8.80;4.40;;;14.90;40.80;;;;;;5036329;28;20022;-62
2022/03/09 12:44:32;;;;;;;6.35;3.75;;;15.10;40.60;;;;;;5036146;28;20052;-62
2022/03/09 12:47:03;;;;;;;10.30;4.53;;;15.10;40.60;;;;;;5035366;28;20038;-62